createdAt,value
2022-11-09T00:00:01.445Z,240.40
2022-11-09T00:02:43.716Z,252.33
2022-11-09T00:05:20.261Z,248.97
2022-11-09T00:07:55.246Z,252.00
2022-11-09T00:10:30.275Z,240.40
2022-11-09T00:13:05.978Z,255.70
2022-11-09T00:15:40.854Z,242.83
2022-11-09T00:18:15.516Z,238.73
2022-11-09T00:20:51.760Z,241.10
2022-11-09T00:23:26.915Z,234.00
2022-11-09T00:26:06.181Z,218.80
2022-11-09T00:28:59.177Z,235.60
2022-11-09T00:31:34.102Z,229.80
2022-11-09T00:34:10.077Z,230.17
2022-11-09T00:36:47.396Z,245.43
2022-11-09T00:39:21.878Z,242.63
2022-11-09T00:41:56.244Z,227.60
2022-11-09T00:44:30.941Z,230.17
2022-11-09T00:47:05.816Z,226.17
2022-11-09T00:49:39.101Z,226.17
2022-11-09T00:52:14.886Z,219.87
2022-11-09T00:54:49.869Z,217.57
2022-11-09T00:57:23.534Z,222.27
2022-11-09T00:59:57.860Z,215.43
2022-11-09T01:02:31.752Z,212.40
2022-11-09T01:05:06.506Z,215.80
2022-11-09T01:07:43.901Z,216.20
2022-11-09T01:10:18.634Z,212.83
2022-11-09T01:12:54.583Z,221.77
2022-11-09T01:15:29.595Z,230.37
2022-11-09T01:18:04.100Z,203.57
2022-11-09T01:20:38.247Z,214.13
2022-11-09T01:23:15.069Z,210.57
2022-11-09T01:25:50.155Z,215.83
2022-11-09T01:28:23.707Z,210.37
2022-11-09T01:30:58.972Z,203.37
2022-11-09T01:33:34.587Z,211.47
2022-11-09T01:36:10.911Z,209.13
2022-11-09T01:38:47.582Z,214.40
2022-11-09T01:41:23.709Z,220.47
2022-11-09T01:44:14.987Z,219.47
2022-11-09T01:46:56.117Z,222.97
2022-11-09T01:49:42.084Z,225.43
2022-11-09T01:52:21.611Z,219.77
2022-11-09T01:55:01.788Z,211.07
2022-11-09T01:57:39.719Z,205.30
2022-11-09T02:00:16.988Z,214.53
2022-11-09T02:02:56.656Z,220.60
2022-11-09T02:05:34.083Z,209.23
2022-11-09T02:08:11.175Z,202.93
2022-11-09T02:10:52.621Z,204.00
2022-11-09T02:13:29.691Z,198.17
2022-11-09T02:16:05.338Z,206.43
2022-11-09T02:18:56.928Z,209.00
2022-11-09T02:21:34.642Z,209.63
2022-11-09T02:24:08.829Z,200.63
2022-11-09T02:26:53.631Z,210.63
2022-11-09T02:29:31.445Z,205.30
2022-11-09T02:32:11.801Z,207.30
2022-11-09T02:34:49.737Z,212.23
2022-11-09T02:37:33.016Z,207.87
2022-11-09T02:40:12.290Z,208.93
2022-11-09T02:42:46.439Z,212.87
2022-11-09T02:45:20.276Z,199.70
2022-11-09T02:47:55.486Z,212.63
2022-11-09T02:50:29.867Z,211.90
2022-11-09T02:53:08.586Z,205.47
2022-11-09T02:55:45.471Z,205.90
2022-11-09T02:58:24.302Z,206.83
2022-11-09T03:00:57.697Z,193.43
2022-11-09T03:03:33.748Z,199.97
2022-11-09T03:06:10.886Z,198.37
2022-11-09T03:08:50.924Z,206.33
2022-11-09T03:11:26.779Z,209.20
2022-11-09T03:14:01.236Z,213.47
2022-11-09T03:16:36.780Z,204.33
2022-11-09T03:19:12.371Z,201.03
2022-11-09T03:21:47.896Z,199.57
2022-11-09T03:24:24.284Z,191.10
2022-11-09T03:27:02.283Z,192.93
2022-11-09T03:29:36.643Z,198.10
2022-11-09T03:32:12.753Z,214.77
2022-11-09T03:34:47.530Z,202.33
2022-11-09T03:37:23.067Z,201.90
2022-11-09T03:40:00.012Z,208.43
2022-11-09T03:42:34.081Z,218.70
2022-11-09T03:45:08.362Z,206.60
2022-11-09T03:47:47.158Z,208.57
2022-11-09T03:50:22.108Z,220.77
2022-11-09T03:52:56.067Z,210.47
2022-11-09T03:55:33.397Z,215.03
2022-11-09T03:58:08.073Z,218.03
2022-11-09T04:00:42.844Z,220.37
2022-11-09T04:03:17.244Z,214.50
2022-11-09T04:05:52.043Z,221.70
2022-11-09T04:08:27.106Z,219.63
2022-11-09T04:11:03.553Z,220.43
2022-11-09T04:13:38.353Z,223.43
2022-11-09T04:16:12.946Z,223.10
2022-11-09T04:18:46.993Z,220.63
2022-11-09T04:21:24.035Z,218.50
2022-11-09T04:23:58.896Z,231.63
2022-11-09T04:26:35.744Z,222.70
2022-11-09T04:29:10.209Z,219.93
2022-11-09T04:31:44.288Z,220.83
2022-11-09T04:34:19.499Z,214.23
2022-11-09T04:36:53.336Z,220.77
2022-11-09T04:39:28.650Z,226.00
2022-11-09T04:42:03.803Z,221.70
2022-11-09T04:44:38.472Z,228.57
2022-11-09T04:47:12.819Z,223.93
2022-11-09T04:49:47.151Z,213.63
2022-11-09T04:52:21.175Z,227.73
2022-11-09T04:54:55.501Z,223.77
2022-11-09T04:57:32.808Z,216.67
2022-11-09T05:00:07.387Z,216.40
2022-11-09T05:02:42.435Z,215.37
2022-11-09T05:05:16.568Z,208.90
2022-11-09T05:07:51.105Z,214.00
2022-11-09T05:10:26.142Z,206.83
2022-11-09T05:15:57.713Z,207.53
2022-11-09T05:18:32.194Z,207.10
2022-11-09T05:21:06.832Z,199.40
2022-11-09T05:23:56.824Z,200.73
2022-11-09T05:26:33.362Z,189.40
2022-11-09T05:29:10.191Z,195.37
2022-11-09T05:31:52.132Z,187.93
2022-11-09T05:34:25.903Z,196.43
2022-11-09T05:37:03.498Z,187.77
2022-11-09T05:39:37.433Z,202.90
2022-11-09T05:42:11.887Z,193.80
2022-11-09T05:44:47.710Z,194.57
2022-11-09T05:47:23.666Z,194.90
2022-11-09T05:49:57.047Z,192.70
2022-11-09T05:52:32.267Z,187.70
2022-11-09T05:55:06.374Z,187.50
2022-11-09T05:57:40.711Z,180.53
2022-11-09T06:00:17.743Z,183.60
2022-11-09T06:02:51.852Z,183.13
2022-11-09T06:05:25.587Z,181.83
2022-11-09T06:08:00.384Z,175.73
2022-11-09T06:10:34.634Z,184.80
2022-11-09T06:13:09.752Z,189.07
2022-11-09T06:15:45.242Z,181.33
2022-11-09T06:18:19.486Z,191.50
2022-11-09T06:20:57.001Z,182.53
2022-11-09T06:23:31.549Z,177.90
2022-11-09T06:26:07.942Z,179.93
2022-11-09T06:28:43.555Z,178.00
2022-11-09T06:31:22.261Z,181.53
2022-11-09T06:33:56.083Z,178.10
2022-11-09T06:36:30.412Z,176.27
2022-11-09T06:39:04.096Z,177.23
2022-11-09T06:41:38.173Z,177.33
2022-11-09T06:44:11.818Z,183.93
2022-11-09T06:46:47.232Z,188.80
2022-11-09T06:49:21.304Z,183.93
2022-11-09T06:51:54.829Z,181.30
2022-11-09T06:54:29.331Z,181.97
2022-11-09T06:57:03.098Z,181.00
2022-11-09T06:59:36.870Z,180.97
2022-11-09T07:02:14.671Z,178.77
2022-11-09T07:04:49.317Z,185.80
2022-11-09T07:07:27.709Z,172.50
2022-11-09T07:10:02.932Z,175.67
2022-11-09T07:12:37.016Z,169.50
2022-11-09T07:15:11.415Z,169.87
2022-11-09T07:17:48.340Z,165.77
2022-11-09T07:20:23.275Z,169.73
2022-11-09T07:22:58.471Z,168.43
2022-11-09T07:25:33.800Z,151.10
2022-11-09T07:28:12.686Z,162.90
2022-11-09T07:30:46.573Z,163.27
2022-11-09T07:33:24.866Z,162.50
2022-11-09T07:35:58.727Z,162.17
2022-11-09T07:38:33.376Z,158.23
2022-11-09T07:41:08.326Z,156.53
2022-11-09T07:43:42.101Z,161.77
2022-11-09T07:46:16.490Z,167.13
2022-11-09T07:48:52.692Z,157.40
2022-11-09T07:51:28.227Z,152.43
2022-11-09T07:54:02.563Z,151.83
2022-11-09T07:56:36.833Z,161.43
2022-11-09T07:59:12.644Z,153.27
2022-11-09T08:01:47.617Z,155.00
2022-11-09T08:04:24.147Z,152.43
2022-11-09T08:06:59.459Z,154.87
2022-11-09T08:09:35.077Z,146.10
2022-11-09T08:12:09.716Z,147.43
2022-11-09T08:14:44.585Z,144.90
2022-11-09T08:17:18.898Z,152.00
2022-11-09T08:20:09.635Z,154.77
2022-11-09T08:22:48.490Z,158.03
2022-11-09T08:25:23.213Z,155.93
2022-11-09T08:27:56.697Z,160.87
2022-11-09T08:30:48.792Z,158.80
2022-11-09T08:33:24.320Z,163.47
2022-11-09T08:36:01.068Z,167.07
2022-11-09T08:38:35.248Z,166.27
2022-11-09T08:41:13.427Z,174.73
2022-11-09T08:44:06.420Z,175.83
2022-11-09T08:46:41.474Z,186.47
2022-11-09T08:49:15.521Z,183.67
2022-11-09T08:51:51.329Z,178.67
2022-11-09T08:54:26.058Z,192.57
2022-11-09T08:57:00.642Z,183.80
2022-11-09T08:59:37.986Z,186.57
2022-11-09T09:02:14.620Z,181.93
2022-11-09T09:04:48.569Z,186.10
2022-11-09T09:07:24.456Z,179.40
2022-11-09T09:09:58.071Z,183.53
2022-11-09T09:12:32.962Z,178.10
2022-11-09T09:15:06.675Z,173.80
2022-11-09T09:17:41.393Z,182.83
2022-11-09T09:20:15.928Z,175.33
2022-11-09T09:22:51.890Z,172.83
2022-11-09T09:25:26.578Z,166.73
2022-11-09T09:28:00.093Z,178.17
2022-11-09T09:30:34.224Z,173.00
2022-11-09T09:33:08.759Z,173.20
2022-11-09T09:35:44.491Z,168.17
2022-11-09T09:38:21.178Z,171.63
2022-11-09T09:41:02.598Z,172.57
2022-11-09T09:43:43.363Z,180.87
2022-11-09T09:46:24.712Z,173.60
2022-11-09T09:49:01.974Z,168.33
2022-11-09T09:51:41.901Z,177.73
2022-11-09T09:54:25.632Z,165.80
2022-11-09T09:57:04.464Z,160.33
2022-11-09T09:59:43.737Z,164.17
2022-11-09T10:02:26.465Z,162.43
2022-11-09T10:05:02.859Z,160.57
2022-11-09T10:07:43.860Z,162.93
2022-11-09T10:10:41.098Z,163.57
2022-11-09T10:13:42.860Z,163.83
2022-11-09T10:16:25.981Z,168.90
2022-11-09T10:19:27.693Z,166.33
2022-11-09T10:22:14.328Z,165.63
2022-11-09T10:25:23.692Z,159.13
2022-11-09T10:27:58.468Z,167.63
2022-11-09T10:30:38.911Z,156.70
2022-11-09T10:33:25.036Z,161.87
2022-11-09T10:36:08.211Z,160.47
2022-11-09T10:38:57.725Z,154.10
2022-11-09T10:41:57.338Z,161.37
2022-11-09T10:44:56.128Z,167.53
2022-11-09T10:48:01.884Z,161.30
2022-11-09T10:51:04.782Z,162.40
2022-11-09T10:54:22.449Z,157.23
2022-11-09T10:57:21.733Z,158.73
2022-11-09T11:00:27.393Z,154.57
2022-11-09T11:03:22.708Z,153.53
2022-11-09T11:06:22.209Z,155.07
2022-11-09T11:09:24.802Z,153.47
2022-11-09T11:12:21.646Z,151.50
2022-11-09T11:15:27.917Z,156.73
2022-11-09T11:18:24.337Z,149.27
2022-11-09T11:21:20.347Z,158.80
2022-11-09T11:24:38.327Z,147.03
2022-11-09T11:27:35.283Z,158.37
2022-11-09T11:30:37.429Z,150.33
2022-11-09T11:33:30.520Z,148.63
2022-11-09T11:36:28.171Z,147.37
2022-11-09T11:39:35.413Z,146.70
2022-11-09T11:42:40.836Z,154.43
2022-11-09T11:45:43.248Z,151.17
2022-11-09T11:48:57.998Z,155.73
2022-11-09T11:51:57.149Z,152.40
2022-11-09T11:55:09.582Z,165.30
2022-11-09T11:58:20.056Z,149.73
2022-11-09T12:01:30.823Z,148.20
2022-11-09T12:04:42.802Z,151.30
2022-11-09T12:07:42.920Z,149.93
2022-11-09T12:10:46.815Z,146.40
2022-11-09T12:13:51.939Z,146.47
2022-11-09T12:16:53.046Z,147.17
2022-11-09T12:19:58.007Z,140.33
2022-11-09T12:22:58.511Z,148.33
2022-11-09T12:26:00.670Z,156.57
2022-11-09T12:29:11.712Z,142.10
2022-11-09T12:32:16.210Z,141.17
2022-11-09T12:35:24.876Z,141.93
2022-11-09T12:38:22.136Z,145.23
2022-11-09T12:41:21.075Z,154.00
2022-11-09T12:44:19.381Z,145.87
2022-11-09T12:47:20.838Z,155.23
2022-11-09T12:50:19.845Z,140.60
2022-11-09T12:53:14.902Z,142.23
2022-11-09T12:56:10.699Z,139.17
2022-11-09T12:59:33.542Z,147.23
2022-11-09T13:02:38.562Z,145.50
2022-11-09T13:05:36.675Z,146.47
2022-11-09T13:08:32.740Z,157.00
2022-11-09T13:11:31.142Z,150.57
2022-11-09T13:14:44.383Z,146.70
2022-11-09T13:18:08.838Z,147.90
2022-11-09T13:21:02.472Z,160.40
2022-11-09T13:24:02.313Z,150.97
2022-11-09T13:27:06.114Z,160.67
2022-11-09T13:29:58.797Z,151.43
2022-11-09T13:33:26.749Z,154.07
2022-11-09T13:36:23.447Z,155.87
2022-11-09T13:39:38.277Z,156.63
2022-11-09T13:42:36.815Z,149.50
2022-11-09T13:45:42.328Z,150.80
2022-11-09T13:48:50.594Z,148.37
2022-11-09T13:51:50.938Z,153.23
2022-11-09T13:54:52.379Z,150.67
2022-11-09T13:57:48.745Z,154.93
2022-11-09T14:00:41.481Z,163.87
2022-11-09T14:03:37.677Z,150.97
2022-11-09T14:06:35.017Z,157.13
2022-11-09T14:09:27.800Z,166.53
2022-11-09T14:12:43.612Z,165.33
2022-11-09T14:15:53.470Z,161.77
2022-11-09T14:18:58.600Z,167.50
2022-11-09T14:21:55.721Z,163.03
2022-11-09T14:24:48.571Z,174.40
2022-11-09T14:27:41.472Z,169.37
2022-11-09T14:30:35.634Z,160.57
2022-11-09T14:33:30.572Z,168.73
2022-11-09T14:36:23.043Z,170.17
2022-11-09T14:39:35.311Z,174.20
2022-11-09T14:42:32.290Z,169.27
2022-11-09T14:45:26.926Z,170.80
2022-11-09T14:48:24.242Z,165.47
2022-11-09T14:51:18.067Z,178.03
2022-11-09T14:54:17.154Z,171.30
2022-11-09T14:57:10.924Z,180.10
2022-11-09T15:00:04.505Z,175.37
2022-11-09T15:02:57.936Z,170.57
2022-11-09T15:05:51.906Z,159.87
2022-11-09T15:08:52.875Z,169.30
2022-11-09T15:11:45.607Z,169.87
2022-11-09T15:14:41.392Z,164.50
2022-11-09T15:17:36.978Z,154.33
2022-11-09T15:20:34.193Z,164.10
2022-11-09T15:23:43.685Z,162.07
2022-11-09T15:26:48.183Z,163.80
2022-11-09T15:29:48.208Z,160.73
2022-11-09T15:32:44.079Z,157.30
2022-11-09T15:35:37.261Z,164.40
2022-11-09T15:38:42.102Z,158.83
2022-11-09T15:41:35.875Z,156.93
2022-11-09T15:44:29.318Z,157.40
2022-11-09T15:47:32.644Z,169.80
2022-11-09T15:50:27.326Z,159.30
2022-11-09T15:53:20.443Z,155.33
2022-11-09T15:56:16.040Z,159.87
2022-11-09T15:59:09.564Z,154.77
2022-11-09T16:02:01.397Z,161.90
2022-11-09T16:04:56.602Z,157.70
2022-11-09T16:07:54.704Z,162.17
2022-11-09T16:10:47.842Z,160.40
2022-11-09T16:13:40.804Z,155.80
2022-11-09T16:16:34.884Z,161.30
2022-11-09T16:19:26.753Z,151.97
2022-11-09T16:22:22.011Z,160.20
2022-11-09T16:25:14.981Z,155.20
2022-11-09T16:28:08.325Z,159.30
2022-11-09T16:31:01.191Z,167.87
2022-11-09T16:33:53.649Z,161.43
2022-11-09T16:36:50.830Z,152.27
2022-11-09T16:39:46.344Z,155.07
2022-11-09T16:42:39.691Z,155.70
2022-11-09T16:45:33.744Z,163.00
2022-11-09T16:48:25.775Z,162.07
2022-11-09T16:51:18.945Z,157.97
2022-11-09T16:54:11.639Z,158.33
2022-11-09T16:57:07.470Z,157.93
2022-11-09T17:00:00.585Z,150.37
2022-11-09T17:02:52.176Z,168.43
2022-11-09T17:05:44.997Z,157.63
2022-11-09T17:08:54.028Z,164.57
2022-11-09T17:11:46.774Z,155.70
2022-11-09T17:14:40.773Z,161.97
2022-11-09T17:17:34.345Z,163.20
2022-11-09T17:20:27.759Z,162.90
2022-11-09T17:23:22.147Z,168.60
2022-11-09T17:26:15.062Z,165.00
2022-11-09T17:29:08.008Z,160.57
2022-11-09T17:32:02.685Z,158.90
2022-11-09T17:34:54.869Z,157.03
2022-11-09T17:38:05.530Z,158.90
2022-11-09T17:40:58.312Z,155.60
2022-11-09T17:43:51.752Z,166.20
2022-11-09T17:46:44.099Z,160.67
2022-11-09T17:49:38.610Z,163.90
2022-11-09T17:52:29.921Z,166.97
2022-11-09T17:55:21.843Z,157.17
2022-11-09T17:58:14.418Z,158.83
2022-11-09T18:01:11.527Z,158.80
2022-11-09T18:04:06.430Z,157.27
2022-11-09T18:07:00.677Z,164.20
2022-11-09T18:09:53.811Z,150.53
2022-11-09T18:12:45.567Z,154.53
2022-11-09T18:15:40.794Z,158.30
2022-11-09T18:18:33.594Z,160.37
2022-11-09T18:21:26.459Z,165.43
2022-11-09T18:24:21.519Z,158.37
2022-11-09T18:27:13.571Z,155.57
2022-11-09T18:30:06.655Z,160.60
2022-11-09T18:32:58.734Z,159.73
2022-11-09T18:35:58.196Z,154.87
2022-11-09T18:38:49.601Z,157.30
2022-11-09T18:41:44.064Z,155.53
2022-11-09T18:44:37.162Z,165.63
2022-11-09T18:47:29.958Z,167.50
2022-11-09T18:50:23.128Z,153.17
2022-11-09T18:53:15.552Z,158.37
2022-11-09T18:56:09.498Z,157.50
2022-11-09T18:59:05.307Z,158.17
2022-11-09T19:01:57.224Z,164.40
2022-11-09T19:04:50.140Z,160.47
2022-11-09T19:07:42.788Z,167.43
2022-11-09T19:10:36.842Z,162.63
2022-11-09T19:13:29.959Z,170.23
2022-11-09T19:16:24.302Z,173.67
2022-11-09T19:19:18.107Z,177.77
2022-11-09T19:22:18.899Z,166.10
2022-11-09T19:25:11.990Z,167.10
2022-11-09T19:28:04.273Z,175.33
2022-11-09T19:30:57.325Z,172.53
2022-11-09T19:33:51.295Z,160.40
2022-11-09T19:36:42.830Z,167.33
2022-11-09T19:39:37.046Z,170.90
2022-11-09T19:42:31.656Z,170.27
2022-11-09T19:45:24.414Z,170.20
2022-11-09T19:48:16.984Z,164.00
2022-11-09T19:51:11.856Z,173.03
2022-11-09T19:54:05.719Z,178.60
2022-11-09T19:56:58.661Z,166.23
2022-11-09T19:59:51.311Z,167.07
2022-11-09T20:02:43.155Z,167.33
2022-11-09T20:05:37.695Z,166.03
2022-11-09T20:08:31.454Z,156.70
2022-11-09T20:11:41.799Z,164.60
2022-11-09T20:14:34.436Z,170.30
2022-11-09T20:17:26.997Z,163.87
2022-11-09T20:20:18.944Z,166.17
2022-11-09T20:23:11.914Z,170.03
2022-11-09T20:26:13.145Z,161.57
2022-11-09T20:29:05.026Z,165.63
2022-11-09T20:31:57.768Z,171.20
2022-11-09T20:34:50.661Z,156.00
2022-11-09T20:37:42.034Z,157.50
2022-11-09T20:40:35.102Z,159.53
2022-11-09T20:43:29.251Z,173.53
2022-11-09T20:46:23.289Z,163.43
2022-11-09T20:49:16.246Z,170.43
2022-11-09T20:52:09.140Z,162.23
2022-11-09T20:55:01.655Z,165.83
2022-11-09T20:57:54.067Z,162.43
2022-11-09T21:00:48.186Z,152.17
2022-11-09T21:03:40.673Z,162.10
2022-11-09T21:06:33.571Z,153.53
2022-11-09T21:09:26.190Z,160.07
2022-11-09T21:12:28.954Z,158.77
2022-11-09T21:15:21.315Z,157.87
2022-11-09T21:18:16.308Z,159.93
2022-11-09T21:21:13.841Z,155.07
2022-11-09T21:24:21.190Z,163.43
2022-11-09T21:27:30.720Z,158.53
2022-11-09T21:30:24.454Z,156.50
2022-11-09T21:33:19.587Z,153.93
2022-11-09T21:36:14.757Z,162.43
2022-11-09T21:39:08.096Z,162.20
2022-11-09T21:42:01.720Z,156.07
2022-11-09T21:44:54.071Z,154.90
2022-11-09T21:47:45.706Z,162.83
2022-11-09T21:50:40.552Z,161.70
2022-11-09T21:53:33.868Z,150.73
2022-11-09T21:56:26.261Z,155.63
2022-11-09T21:59:18.759Z,156.20
2022-11-09T22:02:13.007Z,155.63
2022-11-09T22:05:06.279Z,156.43
2022-11-09T22:08:05.013Z,163.10
2022-11-09T22:10:57.560Z,154.90
2022-11-09T22:14:05.246Z,155.13
2022-11-09T22:16:57.248Z,163.30
2022-11-09T22:20:05.033Z,162.13
2022-11-09T22:22:58.852Z,153.87
2022-11-09T22:25:51.562Z,161.43
2022-11-09T22:28:44.061Z,160.53
2022-11-09T22:31:35.671Z,162.50
2022-11-09T22:34:28.145Z,162.20
2022-11-09T22:37:20.877Z,158.93
2022-11-09T22:40:16.989Z,160.17
2022-11-09T22:43:08.150Z,164.90
2022-11-09T22:45:59.686Z,161.83
2022-11-09T22:49:12.467Z,151.83
2022-11-09T22:52:05.360Z,163.17
2022-11-09T22:54:56.762Z,160.00
2022-11-09T22:57:51.179Z,168.47
2022-11-09T23:00:43.499Z,164.40
2022-11-09T23:03:34.637Z,163.57
2022-11-09T23:06:27.346Z,167.13
2022-11-09T23:09:19.531Z,159.40
2022-11-09T23:12:13.536Z,177.27
2022-11-09T23:15:08.366Z,179.90
2022-11-09T23:18:17.274Z,167.37
2022-11-09T23:21:09.691Z,160.23
2022-11-09T23:24:03.706Z,164.50
2022-11-09T23:26:55.894Z,164.03
2022-11-09T23:29:47.645Z,166.13
2022-11-09T23:32:41.961Z,158.63
2022-11-09T23:35:34.488Z,157.57
2022-11-09T23:38:27.409Z,167.77
2022-11-09T23:41:20.359Z,163.63
2022-11-09T23:44:12.821Z,160.27
2022-11-09T23:47:05.349Z,162.40
2022-11-09T23:49:59.312Z,165.20
2022-11-09T23:52:51.882Z,160.30
2022-11-09T23:55:44.875Z,161.50
2022-11-09T23:58:38.275Z,173.00
